createdAt,value
2023-03-19T00:02:21.346Z,9.80
2023-03-19T00:04:48.189Z,9.80
2023-03-19T00:07:15.647Z,9.80
2023-03-19T00:09:48.176Z,9.80
2023-03-19T00:12:15.042Z,9.80
2023-03-19T00:14:42.046Z,9.90
2023-03-19T00:17:08.720Z,9.90
2023-03-19T00:19:35.508Z,9.90
2023-03-19T00:22:02.547Z,10.00
2023-03-19T00:24:29.262Z,9.90
2023-03-19T00:26:55.963Z,9.90
2023-03-19T00:29:23.244Z,10.00
2023-03-19T00:31:50.378Z,10.00
2023-03-19T00:34:20.602Z,9.90
2023-03-19T00:36:49.057Z,9.80
2023-03-19T00:39:15.890Z,9.70
2023-03-19T00:41:50.161Z,9.70
2023-03-19T00:44:19.906Z,9.70
2023-03-19T00:46:46.897Z,9.70
2023-03-19T00:49:13.597Z,9.70
2023-03-19T00:51:43.676Z,9.80
2023-03-19T00:54:11.934Z,9.80
2023-03-19T00:56:39.069Z,9.80
2023-03-19T00:59:06.650Z,9.90
2023-03-19T01:01:33.526Z,9.80
2023-03-19T01:04:01.465Z,9.80
2023-03-19T01:06:28.377Z,9.70
2023-03-19T01:08:55.262Z,9.70
2023-03-19T01:11:22.091Z,9.50
2023-03-19T01:13:48.765Z,9.40
2023-03-19T01:16:16.256Z,9.40
2023-03-19T01:18:43.076Z,9.40
2023-03-19T01:21:10.648Z,9.40
2023-03-19T01:23:44.198Z,9.50
2023-03-19T01:26:11.170Z,9.50
2023-03-19T01:28:38.135Z,9.60
2023-03-19T01:31:06.685Z,9.60
2023-03-19T01:33:39.430Z,9.70
2023-03-19T01:36:13.931Z,9.70
2023-03-19T01:38:53.523Z,9.70
2023-03-19T01:41:20.333Z,9.70
2023-03-19T01:43:48.787Z,9.70
2023-03-19T01:46:34.397Z,9.80
2023-03-19T01:49:20.071Z,9.80
2023-03-19T01:51:51.972Z,9.80
2023-03-19T01:54:36.857Z,9.80
2023-03-19T01:57:26.508Z,9.70
2023-03-19T02:00:24.275Z,9.70
2023-03-19T02:02:53.749Z,9.70
2023-03-19T02:05:41.998Z,9.80
2023-03-19T02:08:12.541Z,9.80
2023-03-19T02:10:40.099Z,9.70
2023-03-19T02:13:07.107Z,9.60
2023-03-19T02:15:33.952Z,9.60
2023-03-19T02:18:00.719Z,9.60
2023-03-19T02:20:36.802Z,9.50
2023-03-19T02:23:17.917Z,9.50
2023-03-19T02:25:47.448Z,9.50
2023-03-19T02:28:16.703Z,9.50
2023-03-19T02:30:44.128Z,9.50
2023-03-19T02:33:17.730Z,9.50
2023-03-19T02:35:46.705Z,9.50
2023-03-19T02:38:15.720Z,9.60
2023-03-19T02:40:48.534Z,9.60
2023-03-19T02:43:16.030Z,9.50
2023-03-19T02:45:42.862Z,9.50
2023-03-19T02:48:09.531Z,9.40
2023-03-19T02:50:36.204Z,9.40
2023-03-19T02:53:02.915Z,9.40
2023-03-19T02:55:29.727Z,9.50
2023-03-19T02:57:56.495Z,9.50
2023-03-19T03:00:23.242Z,9.50
2023-03-19T03:02:50.715Z,9.50
2023-03-19T03:05:17.574Z,9.50
2023-03-19T03:07:44.913Z,9.50
2023-03-19T03:10:11.942Z,9.50
2023-03-19T03:12:38.893Z,9.50
2023-03-19T03:15:06.627Z,9.50
2023-03-19T03:17:33.382Z,9.50
2023-03-19T03:20:00.325Z,9.50
2023-03-19T03:22:27.598Z,9.60
2023-03-19T03:24:54.246Z,9.50
2023-03-19T03:27:20.902Z,9.60
2023-03-19T03:29:47.766Z,9.70
2023-03-19T03:32:14.665Z,9.60
2023-03-19T03:34:41.566Z,9.60
2023-03-19T03:37:09.240Z,9.60
2023-03-19T03:39:36.041Z,9.50
2023-03-19T03:42:03.061Z,9.40
2023-03-19T03:44:31.316Z,9.40
2023-03-19T03:46:57.991Z,9.40
2023-03-19T03:49:25.160Z,9.40
2023-03-19T03:51:52.471Z,9.50
2023-03-19T03:54:19.209Z,9.50
2023-03-19T03:56:45.871Z,9.50
2023-03-19T03:59:12.741Z,9.50
2023-03-19T04:01:39.411Z,9.50
2023-03-19T04:04:06.174Z,9.50
2023-03-19T04:06:33.267Z,9.50
2023-03-19T04:09:14.717Z,9.40
2023-03-19T04:11:41.753Z,9.50
2023-03-19T04:14:08.794Z,9.50
2023-03-19T04:16:38.033Z,9.60
2023-03-19T04:19:05.130Z,9.60
2023-03-19T04:21:31.937Z,9.70
2023-03-19T04:23:58.774Z,9.60
2023-03-19T04:26:26.126Z,9.70
2023-03-19T04:28:52.885Z,9.60
2023-03-19T04:31:19.681Z,9.60
2023-03-19T04:33:46.388Z,9.60
2023-03-19T04:36:13.259Z,9.60
2023-03-19T04:38:41.499Z,9.60
2023-03-19T04:41:08.890Z,9.60
2023-03-19T04:43:37.964Z,9.60
2023-03-19T04:46:06.881Z,9.60
2023-03-19T04:48:35.898Z,9.60
2023-03-19T04:51:03.660Z,9.60
2023-03-19T04:53:30.415Z,9.60
2023-03-19T04:55:57.130Z,9.60
2023-03-19T04:58:24.230Z,9.50
2023-03-19T05:00:57.474Z,9.50
2023-03-19T05:03:38.439Z,9.60
2023-03-19T05:06:05.684Z,9.60
2023-03-19T05:08:32.683Z,9.60
2023-03-19T05:10:59.436Z,9.60
2023-03-19T05:13:30.853Z,9.50
2023-03-19T05:15:58.307Z,9.40
2023-03-19T05:18:25.990Z,9.40
2023-03-19T05:20:54.660Z,9.40
2023-03-19T05:23:22.945Z,9.40
2023-03-19T05:26:01.142Z,9.50
2023-03-19T05:29:00.379Z,9.40
2023-03-19T05:31:38.289Z,9.40
2023-03-19T05:34:04.949Z,9.40
2023-03-19T05:36:33.397Z,9.30
2023-03-19T05:39:06.733Z,9.30
2023-03-19T05:41:36.724Z,9.30
2023-03-19T05:44:05.954Z,9.30
2023-03-19T05:46:53.239Z,9.30
2023-03-19T05:49:22.501Z,9.20
2023-03-19T05:51:49.362Z,9.30
2023-03-19T05:54:16.238Z,9.20
2023-03-19T05:56:53.179Z,9.20
2023-03-19T05:59:40.204Z,9.20
2023-03-19T06:02:19.839Z,9.10
2023-03-19T06:04:48.583Z,9.10
2023-03-19T06:07:18.116Z,9.10
2023-03-19T06:09:45.232Z,9.10
2023-03-19T06:12:12.249Z,9.20
2023-03-19T06:14:51.830Z,9.20
2023-03-19T06:17:37.063Z,9.20
2023-03-19T06:20:07.976Z,9.20
2023-03-19T06:22:34.904Z,9.20
2023-03-19T06:25:01.583Z,9.30
2023-03-19T06:27:29.907Z,9.20
2023-03-19T06:30:07.731Z,9.10
2023-03-19T06:32:34.912Z,9.10
2023-03-19T06:35:08.530Z,9.10
2023-03-19T06:37:35.361Z,9.20
2023-03-19T06:40:02.210Z,9.20
2023-03-19T06:42:28.934Z,9.20
2023-03-19T06:44:55.736Z,9.20
2023-03-19T06:47:22.490Z,9.20
2023-03-19T06:49:49.152Z,9.20
2023-03-19T06:52:15.937Z,9.20
2023-03-19T06:54:42.648Z,9.20
2023-03-19T06:57:09.421Z,9.20
2023-03-19T06:59:36.113Z,9.20
2023-03-19T07:02:03.124Z,9.20
2023-03-19T07:04:30.396Z,9.20
2023-03-19T07:06:57.101Z,9.10
2023-03-19T07:09:25.294Z,9.00
2023-03-19T07:11:52.005Z,9.00
2023-03-19T07:14:18.667Z,9.00
2023-03-19T07:16:45.518Z,9.00
2023-03-19T07:19:12.209Z,9.00
2023-03-19T07:21:38.879Z,9.00
2023-03-19T07:24:05.933Z,9.00
2023-03-19T07:26:32.762Z,9.10
2023-03-19T07:28:59.462Z,9.10
2023-03-19T07:31:26.297Z,9.10
2023-03-19T07:33:53.040Z,9.20
2023-03-19T07:36:21.114Z,9.20
2023-03-19T07:38:47.843Z,9.20
2023-03-19T07:41:15.299Z,9.30
2023-03-19T07:43:41.973Z,9.30
2023-03-19T07:46:08.740Z,9.40
2023-03-19T07:48:35.786Z,9.30
2023-03-19T07:51:02.542Z,9.30
2023-03-19T07:53:29.333Z,9.40
2023-03-19T07:55:56.028Z,9.40
2023-03-19T07:58:22.735Z,9.40
2023-03-19T08:00:49.524Z,9.50
2023-03-19T08:03:16.463Z,9.60
2023-03-19T08:05:43.238Z,9.70
2023-03-19T08:08:10.277Z,9.70
2023-03-19T08:10:38.406Z,9.70
2023-03-19T08:13:05.659Z,9.70
2023-03-19T08:15:32.479Z,9.80
2023-03-19T08:18:00.382Z,9.80
2023-03-19T08:20:27.218Z,9.90
2023-03-19T08:22:54.166Z,9.90
2023-03-19T08:25:20.839Z,9.90
2023-03-19T08:27:47.599Z,9.90
2023-03-19T08:30:14.524Z,9.90
2023-03-19T08:32:41.401Z,10.00
2023-03-19T08:35:08.592Z,10.00
2023-03-19T08:37:35.309Z,10.00
2023-03-19T08:40:02.043Z,10.00
2023-03-19T08:42:29.100Z,10.00
2023-03-19T08:44:55.893Z,10.00
2023-03-19T08:47:24.308Z,10.10
2023-03-19T08:49:51.922Z,10.00
2023-03-19T08:52:19.278Z,9.90
2023-03-19T08:54:46.091Z,9.90
2023-03-19T08:57:12.776Z,9.90
2023-03-19T08:59:39.444Z,9.90
2023-03-19T09:02:06.216Z,9.90
2023-03-19T09:04:37.287Z,9.90
2023-03-19T09:07:04.049Z,9.90
2023-03-19T09:09:30.805Z,10.00
2023-03-19T09:11:57.483Z,10.00
2023-03-19T09:14:24.217Z,9.90
2023-03-19T09:16:51.138Z,10.00
2023-03-19T09:19:17.981Z,10.00
2023-03-19T09:21:45.531Z,10.00
2023-03-19T09:24:12.240Z,10.10
2023-03-19T09:26:38.886Z,10.10
2023-03-19T09:29:05.642Z,10.20
2023-03-19T09:31:32.360Z,10.30
2023-03-19T09:33:59.058Z,10.30
2023-03-19T09:36:26.490Z,10.40
2023-03-19T09:38:53.191Z,10.50
2023-03-19T09:41:36.264Z,10.50
2023-03-19T09:44:14.479Z,10.40
2023-03-19T09:46:54.649Z,10.50
2023-03-19T09:49:41.301Z,10.50
2023-03-19T09:52:34.794Z,10.50
2023-03-19T09:55:18.900Z,10.60
2023-03-19T09:57:45.958Z,10.50
2023-03-19T10:00:23.836Z,10.50
2023-03-19T10:02:58.499Z,10.50
2023-03-19T10:05:27.465Z,10.50
2023-03-19T10:08:10.271Z,10.50
2023-03-19T10:10:48.362Z,10.50
2023-03-19T10:13:37.757Z,10.70
2023-03-19T10:16:04.649Z,10.90
2023-03-19T10:18:39.294Z,11.00
2023-03-19T10:21:10.403Z,11.00
2023-03-19T10:23:57.571Z,10.90
2023-03-19T10:26:30.200Z,10.80
2023-03-19T10:29:10.472Z,10.80
2023-03-19T10:31:53.786Z,10.80
2023-03-19T10:34:33.124Z,10.60
2023-03-19T10:37:20.707Z,10.70
2023-03-19T10:39:48.889Z,10.60
2023-03-19T10:42:27.104Z,10.50
2023-03-19T10:45:12.985Z,10.60
2023-03-19T10:47:40.392Z,10.50
2023-03-19T10:50:08.229Z,10.50
2023-03-19T10:52:35.709Z,10.50
2023-03-19T10:55:15.670Z,10.50
2023-03-19T10:57:43.401Z,10.50
2023-03-19T11:00:20.702Z,10.50
2023-03-19T11:02:49.190Z,10.50
2023-03-19T11:05:25.647Z,10.50
2023-03-19T11:08:07.386Z,10.40
2023-03-19T11:10:38.868Z,10.40
2023-03-19T11:13:06.658Z,10.40
2023-03-19T11:15:36.431Z,10.40
2023-03-19T11:18:24.030Z,10.30
2023-03-19T11:21:04.139Z,10.30
2023-03-19T11:23:32.187Z,10.30
2023-03-19T11:26:01.931Z,10.20
2023-03-19T11:28:33.477Z,10.20
2023-03-19T11:31:20.289Z,10.20
2023-03-19T11:33:57.175Z,10.10
2023-03-19T11:36:49.808Z,10.20
2023-03-19T11:39:35.803Z,10.20
2023-03-19T11:42:33.515Z,10.20
2023-03-19T11:45:14.439Z,10.30
2023-03-19T11:48:19.469Z,10.40
2023-03-19T11:51:11.361Z,10.40
2023-03-19T11:54:20.250Z,10.50
2023-03-19T11:57:11.325Z,10.50
2023-03-19T11:59:43.590Z,10.50
2023-03-19T12:02:47.948Z,10.60
2023-03-19T12:05:17.521Z,10.80
2023-03-19T12:07:59.516Z,10.90
2023-03-19T12:10:50.181Z,11.00
2023-03-19T12:13:22.912Z,11.10
2023-03-19T12:15:59.456Z,11.20
2023-03-19T12:18:29.350Z,11.20
2023-03-19T12:21:20.606Z,11.30
2023-03-19T12:23:50.097Z,11.30
2023-03-19T12:26:26.275Z,11.30
2023-03-19T12:28:52.996Z,11.40
2023-03-19T12:31:23.170Z,11.50
2023-03-19T12:33:56.620Z,11.50
2023-03-19T12:36:31.970Z,11.60
2023-03-19T12:39:03.886Z,11.50
2023-03-19T12:41:31.424Z,11.50
2023-03-19T12:44:13.084Z,11.60
2023-03-19T12:47:02.668Z,11.60
2023-03-19T12:49:30.918Z,11.50
2023-03-19T12:52:02.092Z,11.50
2023-03-19T12:54:31.488Z,11.50
2023-03-19T12:57:22.514Z,11.50
2023-03-19T13:00:21.639Z,11.50
2023-03-19T13:03:12.481Z,11.40
2023-03-19T13:05:46.196Z,11.30
2023-03-19T13:08:34.027Z,11.40
2023-03-19T13:11:02.767Z,11.80
2023-03-19T13:13:43.327Z,12.60
2023-03-19T13:16:38.185Z,13.20
2023-03-19T13:19:33.763Z,13.50
2023-03-19T13:22:03.588Z,13.50
2023-03-19T13:24:32.203Z,13.30
2023-03-19T13:27:00.534Z,13.10
2023-03-19T13:29:28.439Z,13.00
2023-03-19T13:32:30.520Z,12.90
2023-03-19T13:35:15.758Z,12.80
2023-03-19T13:37:43.035Z,12.80
2023-03-19T13:40:37.114Z,12.70
2023-03-19T13:43:03.800Z,12.80
2023-03-19T13:45:37.339Z,12.60
2023-03-19T13:48:26.344Z,12.70
2023-03-19T13:51:03.834Z,12.60
2023-03-19T13:53:42.256Z,12.50
2023-03-19T13:56:28.521Z,12.50
2023-03-19T13:59:15.306Z,12.30
2023-03-19T14:01:44.846Z,12.20
2023-03-19T14:04:31.024Z,12.00
2023-03-19T14:07:20.030Z,11.70
2023-03-19T14:09:48.495Z,11.40
2023-03-19T14:12:18.348Z,11.10
2023-03-19T14:14:50.938Z,10.90
2023-03-19T14:17:42.026Z,10.80
2023-03-19T14:20:13.152Z,10.70
2023-03-19T14:22:59.046Z,10.60
2023-03-19T14:25:27.385Z,10.50
2023-03-19T14:28:00.998Z,10.50
2023-03-19T14:30:44.657Z,10.50
2023-03-19T14:33:26.441Z,10.50
2023-03-19T14:35:53.239Z,10.50
2023-03-19T14:38:32.457Z,10.50
2023-03-19T14:40:59.141Z,10.50
2023-03-19T14:43:50.738Z,10.50
2023-03-19T14:46:58.775Z,10.50
2023-03-19T14:49:38.325Z,10.60
2023-03-19T14:52:11.916Z,10.70
2023-03-19T14:54:44.739Z,10.90
2023-03-19T14:57:19.232Z,11.10
2023-03-19T14:59:46.045Z,11.20
2023-03-19T15:02:39.307Z,11.30
2023-03-19T15:05:07.485Z,11.30
2023-03-19T15:07:38.462Z,11.50
2023-03-19T15:10:06.860Z,11.60
2023-03-19T15:12:39.441Z,11.60
2023-03-19T15:15:18.025Z,11.60
2023-03-19T15:17:49.232Z,11.50
2023-03-19T15:20:24.453Z,11.50
2023-03-19T15:23:01.370Z,11.50
2023-03-19T15:25:28.420Z,11.40
2023-03-19T15:28:09.320Z,11.60
2023-03-19T15:30:50.430Z,11.60
2023-03-19T15:33:38.884Z,11.50
2023-03-19T15:36:24.574Z,11.60
2023-03-19T15:39:00.435Z,11.50
2023-03-19T15:41:28.199Z,11.50
2023-03-19T15:43:54.880Z,11.50
2023-03-19T15:46:24.154Z,11.60
2023-03-19T15:48:58.767Z,11.60
2023-03-19T15:51:25.720Z,11.60
2023-03-19T15:53:52.765Z,11.60
2023-03-19T15:56:19.413Z,11.60
2023-03-19T15:58:52.985Z,11.60
2023-03-19T16:01:20.266Z,11.60
2023-03-19T16:03:59.343Z,11.60
2023-03-19T16:06:31.667Z,11.50
2023-03-19T16:09:18.888Z,11.50
2023-03-19T16:11:46.192Z,11.40
2023-03-19T16:14:22.880Z,11.40
2023-03-19T16:16:50.070Z,11.30
2023-03-19T16:19:29.828Z,11.40
2023-03-19T16:21:56.838Z,11.30
2023-03-19T16:24:35.992Z,11.30
2023-03-19T16:27:04.291Z,11.40
2023-03-19T16:29:41.873Z,11.30
2023-03-19T16:32:20.287Z,11.30
2023-03-19T16:35:07.922Z,11.20
2023-03-19T16:37:38.618Z,11.00
2023-03-19T16:40:17.486Z,10.90
2023-03-19T16:42:44.759Z,10.90
2023-03-19T16:45:14.496Z,10.80
2023-03-19T16:47:44.723Z,10.80
2023-03-19T16:50:11.680Z,10.80
2023-03-19T16:52:39.301Z,10.70
2023-03-19T16:55:11.843Z,10.70
2023-03-19T16:57:38.553Z,10.70
2023-03-19T17:00:05.693Z,10.80
2023-03-19T17:02:32.425Z,10.70
2023-03-19T17:04:59.156Z,10.70
2023-03-19T17:07:25.983Z,10.70
2023-03-19T17:09:52.731Z,10.70
2023-03-19T17:12:19.501Z,10.70
2023-03-19T17:14:47.006Z,10.70
2023-03-19T17:17:18.372Z,10.70
2023-03-19T17:19:48.042Z,10.70
2023-03-19T17:22:15.013Z,10.70
2023-03-19T17:24:42.389Z,10.70
2023-03-19T17:27:09.459Z,10.70
2023-03-19T17:29:36.171Z,10.70
2023-03-19T17:32:04.069Z,10.70
2023-03-19T17:34:31.984Z,10.70
2023-03-19T17:37:00.297Z,10.70
2023-03-19T17:39:29.834Z,10.70
2023-03-19T17:41:56.605Z,10.60
2023-03-19T17:44:23.392Z,10.60
2023-03-19T17:46:51.343Z,10.60
2023-03-19T17:49:20.581Z,10.60
2023-03-19T17:51:47.384Z,10.50
2023-03-19T17:54:14.332Z,10.50
2023-03-19T17:56:43.235Z,10.50
2023-03-19T17:59:10.800Z,10.40
2023-03-19T18:01:37.764Z,10.40
2023-03-19T18:04:04.531Z,10.40
2023-03-19T18:06:33.729Z,10.40
2023-03-19T18:09:00.773Z,10.30
2023-03-19T18:11:27.620Z,10.30
2023-03-19T18:13:54.376Z,10.30
2023-03-19T18:16:25.329Z,10.30
2023-03-19T18:18:52.232Z,10.20
2023-03-19T18:21:18.984Z,10.20
2023-03-19T18:23:46.464Z,10.20
2023-03-19T18:26:13.878Z,10.20
2023-03-19T18:28:41.243Z,10.20
2023-03-19T18:31:18.371Z,10.20
2023-03-19T18:33:46.722Z,10.10
2023-03-19T18:36:18.134Z,10.20
2023-03-19T18:38:44.805Z,10.10
2023-03-19T18:41:18.514Z,10.10
2023-03-19T18:44:03.720Z,10.10
2023-03-19T18:46:31.243Z,10.10
2023-03-19T18:48:59.480Z,10.10
2023-03-19T18:51:26.857Z,10.00
2023-03-19T18:53:54.011Z,10.00
2023-03-19T18:56:31.012Z,10.00
2023-03-19T18:58:58.203Z,10.00
2023-03-19T19:01:25.264Z,10.00
2023-03-19T19:03:52.086Z,10.00
2023-03-19T19:06:44.205Z,10.00
2023-03-19T19:09:13.558Z,9.90
2023-03-19T19:11:40.453Z,9.90
2023-03-19T19:14:08.701Z,9.90
2023-03-19T19:16:37.424Z,9.90
2023-03-19T19:19:05.133Z,9.90
2023-03-19T19:21:31.809Z,9.90
2023-03-19T19:23:58.530Z,9.90
2023-03-19T19:26:26.308Z,9.90
2023-03-19T19:28:53.637Z,9.90
2023-03-19T19:31:24.505Z,9.90
2023-03-19T19:33:51.709Z,9.90
2023-03-19T19:36:18.492Z,9.80
2023-03-19T19:38:45.344Z,9.90
2023-03-19T19:41:15.969Z,9.90
2023-03-19T19:43:43.184Z,9.90
2023-03-19T19:46:10.979Z,9.80
2023-03-19T19:48:38.912Z,9.80
2023-03-19T19:51:06.092Z,9.80
2023-03-19T19:53:32.764Z,9.80
2023-03-19T19:55:59.515Z,9.80
2023-03-19T19:58:32.562Z,9.80
2023-03-19T20:01:03.826Z,9.80
2023-03-19T20:03:32.152Z,9.80
2023-03-19T20:05:59.378Z,9.80
2023-03-19T20:08:26.950Z,9.80
2023-03-19T20:10:53.785Z,9.80
2023-03-19T20:13:34.017Z,9.80
2023-03-19T20:16:01.428Z,9.80
2023-03-19T20:18:30.964Z,9.70
2023-03-19T20:20:58.153Z,9.70
2023-03-19T20:23:24.935Z,9.80
2023-03-19T20:25:51.668Z,9.70
2023-03-19T20:28:36.722Z,9.70
2023-03-19T20:31:04.034Z,9.70
2023-03-19T20:33:31.369Z,9.70
2023-03-19T20:35:58.452Z,9.70
2023-03-19T20:38:27.219Z,9.70
2023-03-19T20:40:57.256Z,9.70
2023-03-19T20:43:32.388Z,9.70
2023-03-19T20:46:04.453Z,9.60
2023-03-19T20:48:31.936Z,9.70
2023-03-19T20:50:59.527Z,9.60
2023-03-19T20:53:26.382Z,9.60
2023-03-19T20:55:53.104Z,9.60
2023-03-19T20:58:27.520Z,9.60
2023-03-19T21:00:56.304Z,9.60
2023-03-19T21:03:24.305Z,9.60
2023-03-19T21:05:52.701Z,9.60
2023-03-19T21:08:24.385Z,9.50
2023-03-19T21:10:52.973Z,9.50
2023-03-19T21:13:19.741Z,9.60
2023-03-19T21:15:46.967Z,9.50
2023-03-19T21:18:13.796Z,9.50
2023-03-19T21:20:41.317Z,9.50
2023-03-19T21:23:15.835Z,9.50
2023-03-19T21:25:42.642Z,9.50
2023-03-19T21:28:13.127Z,9.40
2023-03-19T21:30:43.367Z,9.40
2023-03-19T21:33:25.150Z,9.40
2023-03-19T21:35:52.436Z,9.40
2023-03-19T21:38:19.261Z,9.40
2023-03-19T21:40:46.152Z,9.40
2023-03-19T21:43:21.392Z,9.40
2023-03-19T21:45:49.385Z,9.40
2023-03-19T21:48:21.173Z,9.30
2023-03-19T21:50:49.971Z,9.30
2023-03-19T21:53:17.727Z,9.20
2023-03-19T21:55:45.300Z,9.10
2023-03-19T21:58:16.468Z,9.10
2023-03-19T22:00:43.531Z,9.10
2023-03-19T22:03:28.646Z,9.10
2023-03-19T22:05:55.501Z,9.10
2023-03-19T22:08:23.665Z,9.00
2023-03-19T22:11:00.802Z,9.00
2023-03-19T22:13:33.991Z,9.00
2023-03-19T22:16:00.791Z,9.00
2023-03-19T22:18:28.149Z,9.00
2023-03-19T22:20:54.833Z,9.00
2023-03-19T22:23:21.844Z,9.00
2023-03-19T22:25:49.963Z,8.90
2023-03-19T22:28:31.556Z,9.00
2023-03-19T22:30:58.329Z,8.90
2023-03-19T22:33:25.986Z,8.90
2023-03-19T22:35:52.807Z,8.80
2023-03-19T22:38:20.414Z,8.80
2023-03-19T22:40:56.343Z,8.80
2023-03-19T22:43:33.257Z,8.70
2023-03-19T22:46:04.929Z,8.70
2023-03-19T22:48:31.719Z,8.70
2023-03-19T22:50:58.696Z,8.70
2023-03-19T22:53:36.354Z,8.70
2023-03-19T22:56:03.588Z,8.70
2023-03-19T22:58:30.558Z,8.70
2023-03-19T23:00:57.394Z,8.70
2023-03-19T23:03:26.504Z,8.80
2023-03-19T23:06:23.365Z,8.80
2023-03-19T23:08:55.951Z,8.80
2023-03-19T23:11:23.414Z,8.80
2023-03-19T23:13:50.182Z,8.80
2023-03-19T23:16:21.316Z,8.80
2023-03-19T23:18:48.292Z,8.80
2023-03-19T23:21:15.906Z,8.90
2023-03-19T23:23:43.031Z,8.80
2023-03-19T23:26:29.621Z,8.90
2023-03-19T23:29:05.392Z,8.90
2023-03-19T23:31:34.360Z,8.90
2023-03-19T23:34:01.548Z,8.80
2023-03-19T23:36:28.279Z,8.80
2023-03-19T23:38:56.362Z,8.80
2023-03-19T23:41:26.129Z,8.70
2023-03-19T23:43:52.967Z,8.80
2023-03-19T23:46:20.596Z,8.80
2023-03-19T23:48:47.380Z,8.70
2023-03-19T23:51:14.547Z,8.70
2023-03-19T23:53:42.082Z,8.70
2023-03-19T23:56:20.639Z,8.70
2023-03-19T23:58:48.389Z,8.80
